Time,TemperatureF,DewpointF,PressureIn,WindDirection,WindDirectionDegrees,WindSpeedMPH,WindSpeedGustMPH,Humidity,HourlyPrecipIn,Conditions,Clouds,dailyrainin,SoftwareType,DateUTC
2013-02-09 00:00:00,38.1,26.6,29.80,West,272,15.0,15.0,63,0.00,CLR,,0.00,WeatherDisplay:10.37,2013-02-09 08:00:00,
2013-02-09 00:05:00,37.4,26.3,29.80,West,263,13.8,13.8,64,0.00,CLR,,0.00,WeatherDisplay:10.37,2013-02-09 08:05:00,
2013-02-09 00:10:00,37.8,26.7,29.80,NNW,340,11.5,11.5,64,0.00,CLR,,0.00,WeatherDisplay:10.37,2013-02-09 08:10:00,
2013-02-09 00:15:00,37.5,26.0,29.80,WSW,245,8.1,8.1,63,0.00,CLR,,0.00,WeatherDisplay:10.37,2013-02-09 08:15:00,
2013-02-09 00:20:00,36.8,25.8,29.80,WSW,256,11.5,11.5,64,0.00,CLR,,0.00,WeatherDisplay:10.37,2013-02-09 08:20:00,
2013-02-09 00:25:00,36.0,26.1,29.81,WSW,249,12.7,12.7,67,0.00,CLR,,0.00,WeatherDisplay:10.37,2013-02-09 08:25:00,
2013-02-09 00:30:00,35.8,26.3,29.81,WSW,242,15.0,15.0,68,0.00,CLR,,0.00,WeatherDisplay:10.37,2013-02-09 08:30:00,
2013-02-09 00:35:00,35.7,26.5,29.81,WSW,250,13.8,13.8,69,0.00,CLR,,0.00,WeatherDisplay:10.37,2013-02-09 08:35:00,
2013-02-09 00:40:00,35.7,26.5,29.81,WSW,240,13.8,13.8,69,0.00,CLR,,0.00,WeatherDisplay:10.37,2013-02-09 08:40:00,
2013-02-09 00:45:00,35.9,27.1,29.81,WSW,257,16.1,16.1,70,0.00,CLR,,0.00,WeatherDisplay:10.37,2013-02-09 08:45:00,
2013-02-09 00:50:00,35.9,26.7,29.81,West,263,15.0,15.0,69,0.00,CLR,,0.00,WeatherDisplay:10.37,2013-02-09 08:50:00,
2013-02-09 00:55:00,35.9,26.7,29.81,WSW,251,14.0,14.0,69,0.00,CLR,,0.00,WeatherDisplay:10.37,2013-02-09 08:55:00,
2013-02-09 01:00:00,36.0,26.8,29.82,WSW,242,15.0,15.0,69,0.00,CLR,,0.00,WeatherDisplay:10.37,2013-02-09 09:00:00,
2013-02-09 01:05:00,36.1,26.9,29.83,West,272,18.4,18.4,69,0.00,CLR,,0.00,WeatherDisplay:10.37,2013-02-09 09:05:00,
2013-02-09 01:10:00,36.2,27.0,29.83,West,268,15.0,15.0,69,0.00,CLR,,0.00,WeatherDisplay:10.37,2013-02-09 09:10:00,
2013-02-09 01:15:00,36.1,26.9,29.83,WNW,290,13.8,13.8,69,0.00,CLR,,0.00,WeatherDisplay:10.37,2013-02-09 09:15:00,
2013-02-09 01:20:00,36.3,26.7,29.83,WSW,258,17.0,17.0,68,0.00,CLR,,0.00,WeatherDisplay:10.37,2013-02-09 09:20:00,
2013-02-09 01:25:00,36.5,26.6,29.82,West,265,17.3,17.3,67,0.00,CLR,,0.00,WeatherDisplay:10.37,2013-02-09 09:25:00,
2013-02-09 01:30:00,36.8,26.9,29.82,WNW,292,17.3,17.3,67,0.00,CLR,,0.00,WeatherDisplay:10.37,2013-02-09 09:30:00,
2013-02-09 01:35:00,36.9,26.6,29.82,WNW,299,13.8,13.8,66,0.00,CLR,,0.00,WeatherDisplay:10.37,2013-02-09 09:35:00,
2013-02-09 01:40:00,36.9,26.6,29.82,WNW,290,13.8,13.8,66,0.00,CLR,,0.00,WeatherDisplay:10.37,2013-02-09 09:40:00,
2013-02-09 01:45:00,36.7,26.4,29.82,WNW,302,11.5,11.5,66,0.00,CLR,,0.00,WeatherDisplay:10.37,2013-02-09 09:45:00,
2013-02-09 01:50:00,36.4,26.1,29.83,West,269,5.8,5.8,66,0.00,CLR,,0.00,WeatherDisplay:10.37,2013-02-09 09:50:00,
2013-02-09 01:55:00,35.9,26.0,29.83,West,261,9.2,9.2,67,0.00,CLR,,0.00,WeatherDisplay:10.37,2013-02-09 09:55:00,
2013-02-09 02:00:00,35.8,26.3,29.83,WNW,283,6.9,6.9,68,0.00,CLR,,0.00,WeatherDisplay:10.37,2013-02-09 10:00:00,
2013-02-09 02:05:00,36.2,26.6,29.83,WNW,299,9.0,9.0,68,0.00,CLR,,0.00,WeatherDisplay:10.37,2013-02-09 10:05:00,
2013-02-09 02:10:00,36.6,26.3,29.83,NW,325,5.8,5.8,66,0.00,CLR,,0.00,WeatherDisplay:10.37,2013-02-09 10:10:00,
2013-02-09 02:15:00,36.3,25.7,29.84,NW,311,5.0,5.0,65,0.00,CLR,,0.00,WeatherDisplay:10.37,2013-02-09 10:15:00,
2013-02-09 02:20:00,36.2,25.6,29.83,West,280,5.8,5.8,65,0.00,CLR,,0.00,WeatherDisplay:10.37,2013-02-09 10:20:00,
2013-02-09 02:25:00,36.4,25.7,29.84,WNW,299,5.0,5.0,65,0.00,CLR,,0.00,WeatherDisplay:10.37,2013-02-09 10:25:00,
2013-02-09 02:30:00,36.4,25.4,29.83,NW,309,11.5,11.5,64,0.00,CLR,,0.00,WeatherDisplay:10.37,2013-02-09 10:30:00,
2013-02-09 02:35:00,36.6,25.2,29.82,West,265,10.4,10.4,63,0.00,CLR,,0.00,WeatherDisplay:10.37,2013-02-09 10:35:00,
2013-02-09 02:40:00,36.2,24.8,29.83,West,265,11.5,11.5,63,0.00,CLR,,0.00,WeatherDisplay:10.37,2013-02-09 10:40:00,
2013-02-09 02:45:00,37.1,25.7,29.83,WNW,296,12.7,12.7,63,0.00,CLR,,0.00,WeatherDisplay:10.37,2013-02-09 10:45:00,
2013-02-09 02:50:00,38.9,26.6,29.82,NW,313,26.5,26.5,61,0.00,CLR,,0.00,WeatherDisplay:10.37,2013-02-09 10:50:00,
2013-02-09 02:55:00,39.2,26.5,29.82,West,275,19.6,19.6,60,0.00,CLR,,0.00,WeatherDisplay:10.37,2013-02-09 10:55:00,
2013-02-09 03:00:00,39.2,26.5,29.82,WSW,256,11.5,11.5,60,0.00,CLR,,0.00,WeatherDisplay:10.37,2013-02-09 11:00:00,
2013-02-09 03:05:00,37.6,25.0,29.83,West,262,11.5,11.5,60,0.00,CLR,,0.00,WeatherDisplay:10.37,2013-02-09 11:05:00,
2013-02-09 03:10:00,36.8,25.0,29.83,WNW,291,10.4,10.4,62,0.00,CLR,,0.00,WeatherDisplay:10.37,2013-02-09 11:10:00,
2013-02-09 03:15:00,36.7,24.9,29.83,SW,232,8.1,8.1,62,0.00,CLR,,0.00,WeatherDisplay:10.37,2013-02-09 11:15:00,
2013-02-09 03:20:00,36.2,25.2,29.83,West,269,6.9,6.9,64,0.00,CLR,,0.00,WeatherDisplay:10.37,2013-02-09 11:20:00,
2013-02-09 03:25:00,35.7,25.4,29.83,WSW,246,11.5,11.5,66,0.00,CLR,,0.00,WeatherDisplay:10.37,2013-02-09 11:25:00,
2013-02-09 03:30:00,35.4,25.5,29.84,WSW,244,11.5,11.5,67,0.00,CLR,,0.00,WeatherDisplay:10.37,2013-02-09 11:30:00,
2013-02-09 03:35:00,35.6,26.4,29.84,SW,218,10.4,10.4,69,0.00,CLR,,0.00,WeatherDisplay:10.37,2013-02-09 11:35:00,
2013-02-09 03:40:00,35.7,26.9,29.84,WSW,256,10.4,10.4,70,0.00,CLR,,0.00,WeatherDisplay:10.37,2013-02-09 11:40:00,
2013-02-09 03:45:00,35.8,26.6,29.84,West,260,11.0,11.0,69,0.00,CLR,,0.00,WeatherDisplay:10.37,2013-02-09 11:45:00,
2013-02-09 03:50:00,36.5,27.6,29.83,WSW,254,11.5,11.5,70,0.00,CLR,,0.00,WeatherDisplay:10.37,2013-02-09 11:50:00,
2013-02-09 03:55:00,36.9,27.7,29.83,West,275,17.3,17.3,69,0.00,CLR,,0.00,WeatherDisplay:10.37,2013-02-09 11:55:00,
2013-02-09 04:00:00,37.7,28.1,29.83,NW,306,11.5,11.5,68,0.00,CLR,,0.00,WeatherDisplay:10.37,2013-02-09 12:00:00,
2013-02-09 04:05:00,37.6,28.0,29.83,NW,306,13.8,13.8,68,0.00,CLR,,0.00,WeatherDisplay:10.37,2013-02-09 12:05:00,
2013-02-09 04:10:00,37.3,28.1,29.83,WNW,287,14.0,14.0,69,0.00,CLR,,0.00,WeatherDisplay:10.37,2013-02-09 12:10:00,
2013-02-09 04:15:00,37.4,28.2,29.83,WNW,291,11.5,11.5,69,0.00,CLR,,0.00,WeatherDisplay:10.37,2013-02-09 12:15:00,
2013-02-09 04:20:00,37.1,27.9,29.84,West,277,11.5,11.5,69,0.00,CLR,,0.00,WeatherDisplay:10.37,2013-02-09 12:20:00,
2013-02-09 04:25:00,37.3,28.1,29.83,WNW,285,12.7,12.7,69,0.00,CLR,,0.00,WeatherDisplay:10.37,2013-02-09 12:25:00,
2013-02-09 04:30:00,37.2,28.0,29.84,NNW,330,11.5,11.5,69,0.00,CLR,,0.00,WeatherDisplay:10.37,2013-02-09 12:30:00,
2013-02-09 04:35:00,37.6,28.7,29.84,WNW,286,13.8,13.8,70,0.00,CLR,,0.00,WeatherDisplay:10.37,2013-02-09 12:35:00,
2013-02-09 04:40:00,38.0,28.0,29.84,NW,315,12.7,12.7,67,0.00,CLR,,0.00,WeatherDisplay:10.37,2013-02-09 12:40:00,
2013-02-09 04:45:00,37.8,27.8,29.84,WNW,300,10.4,10.4,67,0.00,CLR,,0.00,WeatherDisplay:10.37,2013-02-09 12:45:00,
2013-02-09 04:50:00,37.4,28.2,29.84,WNW,299,10.4,10.4,69,0.00,CLR,,0.00,WeatherDisplay:10.37,2013-02-09 12:50:00,
2013-02-09 04:55:00,37.3,28.1,29.85,WNW,288,6.9,6.9,69,0.00,CLR,,0.00,WeatherDisplay:10.37,2013-02-09 12:55:00,
2013-02-09 05:00:00,37.2,28.0,29.85,WNW,298,3.5,3.5,69,0.00,CLR,,0.00,WeatherDisplay:10.37,2013-02-09 13:00:00,
2013-02-09 05:05:00,37.0,27.8,29.85,WSW,258,3.5,3.5,69,0.00,CLR,,0.00,WeatherDisplay:10.37,2013-02-09 13:05:00,
2013-02-09 05:10:00,36.7,27.5,29.85,WNW,287,5.8,5.8,69,0.00,CLR,,0.00,WeatherDisplay:10.37,2013-02-09 13:10:00,
2013-02-09 05:15:00,37.0,27.8,29.86,NNW,334,4.6,4.6,69,0.00,CLR,,0.00,WeatherDisplay:10.37,2013-02-09 13:15:00,
2013-02-09 05:20:00,36.7,27.1,29.86,NNW,331,6.9,6.9,68,0.00,CLR,,0.00,WeatherDisplay:10.37,2013-02-09 13:20:00,
2013-02-09 05:25:00,36.4,27.2,29.86,NW,309,4.6,4.6,69,0.00,CLR,,0.00,WeatherDisplay:10.37,2013-02-09 13:25:00,
2013-02-09 05:30:00,36.4,27.2,29.86,NW,307,5.0,5.0,69,0.00,CLR,,0.00,WeatherDisplay:10.37,2013-02-09 13:30:00,
2013-02-09 05:35:00,36.5,27.3,29.86,NW,307,5.8,5.8,69,0.00,CLR,,0.00,WeatherDisplay:10.37,2013-02-09 13:35:00,
2013-02-09 05:40:00,36.8,27.2,29.86,NW,321,6.9,6.9,68,0.00,CLR,,0.00,WeatherDisplay:10.37,2013-02-09 13:40:00,
2013-02-09 05:45:00,37.7,27.7,29.86,WNW,295,11.5,11.5,67,0.00,CLR,,0.00,WeatherDisplay:10.37,2013-02-09 13:45:00,
2013-02-09 05:50:00,37.9,27.2,29.86,SW,227,9.2,9.2,65,0.00,CLR,,0.00,WeatherDisplay:10.37,2013-02-09 13:50:00,
2013-02-09 05:55:00,37.5,26.8,29.86,West,269,5.8,5.8,65,0.00,CLR,,0.00,WeatherDisplay:10.37,2013-02-09 13:55:00,
2013-02-09 06:00:00,37.2,26.9,29.87,WNW,296,6.9,6.9,66,0.00,CLR,,0.00,WeatherDisplay:10.37,2013-02-09 14:00:00,
2013-02-09 06:05:00,37.1,26.8,29.87,NNW,327,4.6,4.6,66,0.00,CLR,,0.00,WeatherDisplay:10.37,2013-02-09 14:05:00,
2013-02-09 06:10:00,37.0,26.7,29.88,NW,321,2.3,2.3,66,0.00,CLR,,0.00,WeatherDisplay:10.37,2013-02-09 14:10:00,
2013-02-09 06:15:00,37.1,26.8,29.88,NNW,338,3.5,3.5,66,0.00,CLR,,0.00,WeatherDisplay:10.37,2013-02-09 14:15:00,
2013-02-09 06:20:00,37.6,26.9,29.87,SW,235,3.5,3.5,65,0.00,CLR,,0.00,WeatherDisplay:10.37,2013-02-09 14:20:00,
2013-02-09 06:25:00,37.0,26.3,29.88,SSE,163,3.5,3.5,65,0.00,CLR,,0.00,WeatherDisplay:10.37,2013-02-09 14:25:00,
2013-02-09 06:30:00,36.6,26.3,29.88,SE,143,4.6,4.6,66,0.00,CLR,,0.00,WeatherDisplay:10.37,2013-02-09 14:30:00,
2013-02-09 06:35:00,36.2,26.3,29.89,SE,142,3.5,3.5,67,0.00,CLR,,0.00,WeatherDisplay:10.37,2013-02-09 14:35:00,
2013-02-09 06:40:00,36.0,26.5,29.89,SE,143,6.9,6.9,68,0.00,CLR,,0.00,WeatherDisplay:10.37,2013-02-09 14:40:00,
2013-02-09 06:45:00,36.4,26.5,29.89,SE,143,5.8,5.8,67,0.00,CLR,,0.00,WeatherDisplay:10.37,2013-02-09 14:45:00,
2013-02-09 06:50:00,36.5,26.6,29.89,SE,143,4.6,4.6,67,0.00,CLR,,0.00,WeatherDisplay:10.37,2013-02-09 14:50:00,
2013-02-09 06:55:00,37.0,26.7,29.89,SE,142,5.0,5.0,66,0.00,CLR,,0.00,WeatherDisplay:10.37,2013-02-09 14:55:00,
2013-02-09 07:00:00,37.3,26.6,29.90,SE,143,3.5,3.5,65,0.00,CLR,,0.00,WeatherDisplay:10.37,2013-02-09 15:00:00,
2013-02-09 07:05:00,37.7,27.0,29.89,SE,142,4.6,4.6,65,0.00,CLR,,0.00,WeatherDisplay:10.37,2013-02-09 15:05:00,
2013-02-09 07:10:00,37.8,26.7,29.90,SE,142,3.5,3.5,64,0.00,CLR,,0.00,WeatherDisplay:10.37,2013-02-09 15:10:00,
2013-02-09 07:15:00,37.8,26.7,29.90,SE,143,3.5,3.5,64,0.00,CLR,,0.00,WeatherDisplay:10.37,2013-02-09 15:15:00,
2013-02-09 07:20:00,37.7,26.6,29.90,SE,143,3.5,3.5,64,0.00,CLR,,0.00,WeatherDisplay:10.37,2013-02-09 15:20:00,
2013-02-09 07:25:00,37.8,26.7,29.90,SE,143,3.5,3.5,64,0.00,CLR,,0.00,WeatherDisplay:10.37,2013-02-09 15:25:00,
2013-02-09 07:30:00,38.2,27.1,29.90,SE,143,3.5,3.5,64,0.00,CLR,,0.00,WeatherDisplay:10.37,2013-02-09 15:30:00,
2013-02-09 07:35:00,39.0,27.8,29.90,West,265,8.1,8.1,64,0.00,CLR,,0.00,WeatherDisplay:10.37,2013-02-09 15:35:00,
2013-02-09 07:40:00,39.8,27.8,29.90,West,280,10.4,10.4,62,0.00,CLR,,0.00,WeatherDisplay:10.37,2013-02-09 15:40:00,
2013-02-09 07:45:00,40.1,27.3,29.90,West,277,11.5,11.5,60,0.00,CLR,,0.00,WeatherDisplay:10.37,2013-02-09 15:45:00,
2013-02-09 07:50:00,40.3,27.1,29.91,WNW,288,11.5,11.5,59,0.00,CLR,,0.00,WeatherDisplay:10.37,2013-02-09 15:50:00,
2013-02-09 07:55:00,40.6,27.4,29.90,West,269,11.5,11.5,59,0.00,CLR,,0.00,WeatherDisplay:10.37,2013-02-09 15:55:00,
2013-02-09 08:00:00,40.9,27.7,29.90,WSW,256,11.5,11.5,59,0.00,CLR,,0.00,WeatherDisplay:10.37,2013-02-09 16:00:00,
2013-02-09 08:05:00,41.1,27.4,29.90,WNW,288,11.5,11.5,58,0.00,CLR,,0.00,WeatherDisplay:10.37,2013-02-09 16:05:00,
2013-02-09 08:10:00,41.0,26.9,29.91,West,265,13.8,13.8,57,0.00,CLR,,0.00,WeatherDisplay:10.37,2013-02-09 16:10:00,
2013-02-09 08:15:00,41.0,26.9,29.91,West,263,11.5,11.5,57,0.00,CLR,,0.00,WeatherDisplay:10.37,2013-02-09 16:15:00,
2013-02-09 08:20:00,40.8,27.2,29.91,West,272,11.5,11.5,58,0.00,CLR,,0.00,WeatherDisplay:10.37,2013-02-09 16:20:00,
2013-02-09 08:25:00,40.6,27.0,29.91,West,267,18.4,18.4,58,0.00,CLR,,0.00,WeatherDisplay:10.37,2013-02-09 16:25:00,
2013-02-09 08:30:00,40.5,26.9,29.91,WSW,254,16.1,16.1,58,0.00,CLR,,0.00,WeatherDisplay:10.37,2013-02-09 16:30:00,
2013-02-09 08:35:00,40.5,26.9,29.92,West,273,16.1,16.1,58,0.00,CLR,,0.00,WeatherDisplay:10.37,2013-02-09 16:35:00,
2013-02-09 08:40:00,40.6,26.5,29.91,West,260,16.1,16.1,57,0.00,CLR,,0.00,WeatherDisplay:10.37,2013-02-09 16:40:00,
2013-02-09 08:45:00,40.9,26.4,29.91,West,277,15.0,15.0,56,0.00,CLR,,0.00,WeatherDisplay:10.37,2013-02-09 16:45:00,
2013-02-09 08:50:00,41.1,26.6,29.91,West,260,15.0,15.0,56,0.00,CLR,,0.00,WeatherDisplay:10.37,2013-02-09 16:50:00,
2013-02-09 08:55:00,41.6,26.6,29.91,West,272,15.0,15.0,55,0.00,CLR,,0.00,WeatherDisplay:10.37,2013-02-09 16:55:00,
2013-02-09 09:00:00,41.9,26.9,29.91,West,269,19.6,19.6,55,0.00,CLR,,0.00,WeatherDisplay:10.37,2013-02-09 17:00:00,
2013-02-09 09:05:00,41.9,26.9,29.91,West,267,17.3,17.3,55,0.00,CLR,,0.00,WeatherDisplay:10.37,2013-02-09 17:05:00,
2013-02-09 09:10:00,41.9,26.9,29.91,West,268,11.5,11.5,55,0.00,CLR,,0.00,WeatherDisplay:10.37,2013-02-09 17:10:00,
2013-02-09 09:15:00,42.0,26.5,29.91,West,267,12.7,12.7,54,0.00,CLR,,0.00,WeatherDisplay:10.37,2013-02-09 17:15:00,
2013-02-09 09:20:00,42.2,26.3,29.91,West,259,13.8,13.8,53,0.00,CLR,,0.00,WeatherDisplay:10.37,2013-02-09 17:20:00,
2013-02-09 09:25:00,42.3,26.4,29.91,West,269,13.8,13.8,53,0.00,CLR,,0.00,WeatherDisplay:10.37,2013-02-09 17:25:00,
2013-02-09 09:30:00,42.5,26.1,29.91,SW,230,13.8,13.8,52,0.00,CLR,,0.00,WeatherDisplay:10.37,2013-02-09 17:30:00,
2013-02-09 09:35:00,42.9,27.4,29.92,WSW,250,18.0,18.0,54,0.00,CLR,,0.00,WeatherDisplay:10.37,2013-02-09 17:35:00,
2013-02-09 09:40:00,43.0,26.1,29.91,West,260,16.1,16.1,51,0.00,CLR,,0.00,WeatherDisplay:10.37,2013-02-09 17:40:00,
2013-02-09 09:45:00,43.2,26.7,29.92,WNW,294,17.3,17.3,52,0.00,CLR,,0.00,WeatherDisplay:10.37,2013-02-09 17:45:00,
2013-02-09 09:50:00,43.3,25.9,29.92,West,275,15.0,15.0,50,0.00,CLR,,0.00,WeatherDisplay:10.37,2013-02-09 17:50:00,
2013-02-09 09:55:00,43.1,26.7,29.92,West,263,11.5,11.5,52,0.00,CLR,,0.00,WeatherDisplay:10.37,2013-02-09 17:55:00,
2013-02-09 10:00:00,43.5,26.1,29.92,WSW,242,11.5,11.5,50,0.00,CLR,,0.00,WeatherDisplay:10.37,2013-02-09 18:00:00,
2013-02-09 10:05:00,43.7,25.8,29.92,West,271,18.4,18.4,49,0.00,CLR,,0.00,WeatherDisplay:10.37,2013-02-09 18:05:00,
2013-02-09 10:10:00,43.6,26.2,29.92,WSW,249,19.6,19.6,50,0.00,CLR,,0.00,WeatherDisplay:10.37,2013-02-09 18:10:00,
2013-02-09 10:15:00,43.7,26.3,29.92,WSW,254,15.0,15.0,50,0.00,CLR,,0.00,WeatherDisplay:10.37,2013-02-09 18:15:00,
2013-02-09 10:20:00,44.1,25.6,29.92,WSW,250,17.3,17.3,48,0.00,CLR,,0.00,WeatherDisplay:10.37,2013-02-09 18:20:00,
2013-02-09 10:25:00,44.4,25.4,29.92,WSW,252,18.4,18.4,47,0.00,CLR,,0.00,WeatherDisplay:10.37,2013-02-09 18:25:00,
2013-02-09 10:30:00,44.7,25.7,29.92,West,268,13.8,13.8,47,0.00,CLR,,0.00,WeatherDisplay:10.37,2013-02-09 18:30:00,
2013-02-09 10:35:00,45.0,25.4,29.92,WSW,245,16.1,16.1,46,0.00,CLR,,0.00,WeatherDisplay:10.37,2013-02-09 18:35:00,
2013-02-09 10:40:00,44.5,26.0,29.92,WNW,287,19.6,19.6,48,0.00,CLR,,0.00,WeatherDisplay:10.37,2013-02-09 18:40:00,
2013-02-09 10:45:00,44.7,25.2,29.92,West,280,16.1,16.1,46,0.00,CLR,,0.00,WeatherDisplay:10.37,2013-02-09 18:45:00,
2013-02-09 10:50:00,45.0,27.0,29.92,WSW,248,21.9,21.9,49,0.00,CLR,,0.00,WeatherDisplay:10.37,2013-02-09 18:50:00,
2013-02-09 10:55:00,44.9,26.4,29.92,WSW,237,19.6,19.6,48,0.00,CLR,,0.00,WeatherDisplay:10.37,2013-02-09 18:55:00,
2013-02-09 11:00:00,44.8,25.8,29.92,West,267,26.5,26.5,47,0.00,CLR,,0.00,WeatherDisplay:10.37,2013-02-09 19:00:00,
2013-02-09 11:05:00,44.8,25.3,29.92,WSW,250,20.7,20.7,46,0.00,CLR,,0.00,WeatherDisplay:10.37,2013-02-09 19:05:00,
2013-02-09 11:10:00,45.2,25.6,29.92,WSW,257,23.0,23.0,46,0.00,CLR,,0.00,WeatherDisplay:10.37,2013-02-09 19:10:00,
2013-02-09 11:15:00,45.2,26.1,29.92,WSW,244,25.3,25.3,47,0.00,CLR,,0.00,WeatherDisplay:10.37,2013-02-09 19:15:00,
2013-02-09 11:20:00,45.5,25.4,29.91,West,262,25.3,25.3,45,0.00,CLR,,0.00,WeatherDisplay:10.37,2013-02-09 19:20:00,
2013-02-09 11:25:00,45.3,25.2,29.92,West,270,26.5,26.5,45,0.00,CLR,,0.00,WeatherDisplay:10.37,2013-02-09 19:25:00,
2013-02-09 11:30:00,45.4,25.8,29.92,WSW,246,19.6,19.6,46,0.00,CLR,,0.00,WeatherDisplay:10.37,2013-02-09 19:30:00,
2013-02-09 11:35:00,45.7,26.6,29.92,West,267,21.9,21.9,47,0.00,CLR,,0.00,WeatherDisplay:10.37,2013-02-09 19:35:00,
2013-02-09 11:40:00,45.7,25.5,29.91,SW,230,24.2,24.2,45,0.00,CLR,,0.00,WeatherDisplay:10.37,2013-02-09 19:40:00,
2013-02-09 11:45:00,46.0,25.3,29.91,WSW,242,24.2,24.2,44,0.00,CLR,,0.00,WeatherDisplay:10.37,2013-02-09 19:45:00,
2013-02-09 11:50:00,46.3,25.6,29.90,West,263,26.5,26.5,44,0.00,CLR,,0.00,WeatherDisplay:10.37,2013-02-09 19:50:00,
2013-02-09 11:55:00,46.4,25.1,29.90,West,261,26.5,26.5,43,0.00,CLR,,0.00,WeatherDisplay:10.37,2013-02-09 19:55:00,
2013-02-09 12:00:00,46.7,24.8,29.90,West,261,24.2,24.2,42,0.00,CLR,,0.00,WeatherDisplay:10.37,2013-02-09 20:00:00,
2013-02-09 12:05:00,46.5,25.2,29.91,West,261,23.0,23.0,43,0.00,CLR,,0.00,WeatherDisplay:10.37,2013-02-09 20:05:00,
2013-02-09 12:10:00,46.7,24.8,29.90,WSW,254,23.0,23.0,42,0.00,CLR,,0.00,WeatherDisplay:10.37,2013-02-09 20:10:00,
2013-02-09 12:15:00,46.8,24.9,29.90,WSW,246,23.0,23.0,42,0.00,CLR,,0.00,WeatherDisplay:10.37,2013-02-09 20:15:00,
2013-02-09 12:20:00,46.6,24.7,29.90,West,267,24.2,24.2,42,0.00,CLR,,0.00,WeatherDisplay:10.37,2013-02-09 20:20:00,
2013-02-09 12:25:00,46.8,24.9,29.90,WSW,254,24.2,24.2,42,0.00,CLR,,0.00,WeatherDisplay:10.37,2013-02-09 20:25:00,
2013-02-09 12:30:00,46.8,24.9,29.90,West,259,26.5,26.5,42,0.00,CLR,,0.00,WeatherDisplay:10.37,2013-02-09 20:30:00,
2013-02-09 12:35:00,47.0,24.5,29.90,West,269,21.9,21.9,41,0.00,CLR,,0.00,WeatherDisplay:10.37,2013-02-09 20:35:00,
2013-02-09 12:40:00,47.1,24.6,29.90,West,266,21.9,21.9,41,0.00,CLR,,0.00,WeatherDisplay:10.37,2013-02-09 20:40:00,
2013-02-09 12:45:00,47.1,24.6,29.90,West,277,23.0,23.0,41,0.00,CLR,,0.00,WeatherDisplay:10.37,2013-02-09 20:45:00,
2013-02-09 12:50:00,48.0,24.2,29.89,West,281,29.9,29.9,39,0.00,CLR,,0.00,WeatherDisplay:10.37,2013-02-09 20:50:00,
2013-02-09 12:55:00,47.5,24.3,29.89,WSW,251,21.9,21.9,40,0.00,CLR,,0.00,WeatherDisplay:10.37,2013-02-09 20:55:00,
2013-02-09 13:00:00,47.9,24.1,29.89,West,267,21.9,21.9,39,0.00,CLR,,0.00,WeatherDisplay:10.37,2013-02-09 21:00:00,
2013-02-09 13:05:00,47.8,24.0,29.89,West,271,19.6,19.6,39,0.00,CLR,,0.00,WeatherDisplay:10.37,2013-02-09 21:05:00,
2013-02-09 13:10:00,47.6,23.2,29.89,West,274,25.3,25.3,38,0.00,CLR,,0.00,WeatherDisplay:10.37,2013-02-09 21:10:00,
2013-02-09 13:15:00,47.9,23.5,29.89,WSW,258,21.9,21.9,38,0.00,CLR,,0.00,WeatherDisplay:10.37,2013-02-09 21:15:00,
2013-02-09 13:20:00,47.9,22.8,29.89,WNW,286,28.8,28.8,37,0.00,CLR,,0.00,WeatherDisplay:10.37,2013-02-09 21:20:00,
2013-02-09 13:25:00,47.4,22.4,29.90,WNW,299,26.5,26.5,37,0.00,CLR,,0.00,WeatherDisplay:10.37,2013-02-09 21:25:00,
2013-02-09 13:30:00,47.8,22.1,29.89,WNW,285,24.2,24.2,36,0.00,CLR,,0.00,WeatherDisplay:10.37,2013-02-09 21:30:00,
2013-02-09 13:35:00,48.0,22.3,29.89,WNW,287,19.6,19.6,36,0.00,CLR,,0.00,WeatherDisplay:10.37,2013-02-09 21:35:00,
2013-02-09 13:40:00,48.4,22.6,29.89,WNW,294,25.3,25.3,36,0.00,CLR,,0.00,WeatherDisplay:10.37,2013-02-09 21:40:00,
2013-02-09 13:45:00,47.7,21.3,29.89,West,281,26.5,26.5,35,0.00,CLR,,0.00,WeatherDisplay:10.37,2013-02-09 21:45:00,
2013-02-09 13:50:00,47.6,21.9,29.89,West,270,23.0,23.0,36,0.00,CLR,,0.00,WeatherDisplay:10.37,2013-02-09 21:50:00,
2013-02-09 13:55:00,48.2,22.5,29.89,WNW,285,25.3,25.3,36,0.00,CLR,,0.00,WeatherDisplay:10.37,2013-02-09 21:55:00,
2013-02-09 14:00:00,48.0,22.3,29.89,West,279,23.0,23.0,36,0.00,CLR,,0.00,WeatherDisplay:10.37,2013-02-09 22:00:00,
2013-02-09 14:05:00,48.0,22.3,29.89,West,273,22.0,22.0,36,0.00,CLR,,0.00,WeatherDisplay:10.37,2013-02-09 22:05:00,
2013-02-09 14:10:00,48.1,22.4,29.89,WNW,298,21.9,21.9,36,0.00,CLR,,0.00,WeatherDisplay:10.37,2013-02-09 22:10:00,
2013-02-09 14:15:00,48.1,22.4,29.88,West,279,26.5,26.5,36,0.00,CLR,,0.00,WeatherDisplay:10.37,2013-02-09 22:15:00,
2013-02-09 14:20:00,47.9,22.2,29.88,WNW,294,27.6,27.6,36,0.00,CLR,,0.00,WeatherDisplay:10.37,2013-02-09 22:20:00,
2013-02-09 14:25:00,47.5,21.8,29.88,WNW,294,26.5,26.5,36,0.00,CLR,,0.00,WeatherDisplay:10.37,2013-02-09 22:25:00,
2013-02-09 14:30:00,47.6,21.9,29.89,WNW,287,24.2,24.2,36,0.00,CLR,,0.00,WeatherDisplay:10.37,2013-02-09 22:30:00,
2013-02-09 14:35:00,47.9,22.2,29.89,West,259,21.9,21.9,36,0.00,CLR,,0.00,WeatherDisplay:10.37,2013-02-09 22:35:00,
2013-02-09 14:40:00,48.1,21.7,29.88,West,267,24.2,24.2,35,0.00,CLR,,0.00,WeatherDisplay:10.37,2013-02-09 22:40:00,
2013-02-09 14:45:00,48.3,21.9,29.88,WNW,282,26.5,26.5,35,0.00,CLR,,0.00,WeatherDisplay:10.37,2013-02-09 22:45:00,
2013-02-09 14:50:00,48.2,21.8,29.88,WNW,283,25.3,25.3,35,0.00,CLR,,0.00,WeatherDisplay:10.37,2013-02-09 22:50:00,
2013-02-09 14:55:00,48.7,22.2,29.88,WNW,288,19.6,19.6,35,0.00,CLR,,0.00,WeatherDisplay:10.37,2013-02-09 22:55:00,
2013-02-09 15:00:00,48.4,22.0,29.88,WNW,284,23.0,23.0,35,0.00,CLR,,0.00,WeatherDisplay:10.37,2013-02-09 23:00:00,
2013-02-09 15:05:00,48.7,22.2,29.88,WSW,249,17.3,17.3,35,0.00,CLR,,0.00,WeatherDisplay:10.37,2013-02-09 23:05:00,
2013-02-09 15:10:00,49.1,22.6,29.88,West,267,17.0,17.0,35,0.00,CLR,,0.00,WeatherDisplay:10.37,2013-02-09 23:10:00,
2013-02-09 15:15:00,48.6,21.5,29.88,WNW,292,19.6,19.6,34,0.00,CLR,,0.00,WeatherDisplay:10.37,2013-02-09 23:15:00,
2013-02-09 15:20:00,48.5,21.4,29.88,WNW,297,16.1,16.1,34,0.00,CLR,,0.00,WeatherDisplay:10.37,2013-02-09 23:20:00,
2013-02-09 15:25:00,48.3,21.2,29.88,West,279,23.0,23.0,34,0.00,CLR,,0.00,WeatherDisplay:10.37,2013-02-09 23:25:00,
2013-02-09 15:30:00,48.3,21.2,29.88,NW,309,18.4,18.4,34,0.00,CLR,,0.00,WeatherDisplay:10.37,2013-02-09 23:30:00,
2013-02-09 15:35:00,48.7,21.5,29.88,WNW,298,21.0,21.0,34,0.00,CLR,,0.00,WeatherDisplay:10.37,2013-02-09 23:35:00,
2013-02-09 15:40:00,48.3,21.2,29.88,West,281,19.6,19.6,34,0.00,CLR,,0.00,WeatherDisplay:10.37,2013-02-09 23:40:00,
2013-02-09 15:45:00,48.4,21.3,29.88,WNW,299,20.7,20.7,34,0.00,CLR,,0.00,WeatherDisplay:10.37,2013-02-09 23:45:00,
2013-02-09 15:50:00,48.3,21.2,29.88,WNW,286,18.4,18.4,34,0.00,CLR,,0.00,WeatherDisplay:10.37,2013-02-09 23:50:00,
2013-02-09 15:55:00,48.6,21.5,29.88,WNW,293,18.0,18.0,34,0.00,CLR,,0.00,WeatherDisplay:10.37,2013-02-09 23:55:00,
2013-02-09 16:00:00,48.5,20.7,29.88,West,264,23.0,23.0,33,0.00,CLR,,0.00,WeatherDisplay:10.37,2013-02-10 00:00:00,
2013-02-09 16:05:00,48.3,20.5,29.88,WNW,291,17.3,17.3,33,0.00,CLR,,0.00,WeatherDisplay:10.37,2013-02-10 00:05:00,
2013-02-09 16:10:00,48.1,21.0,29.88,WNW,285,17.3,17.3,34,0.00,CLR,,0.00,WeatherDisplay:10.37,2013-02-10 00:10:00,
2013-02-09 16:15:00,48.3,20.5,29.88,West,274,19.6,19.6,33,0.00,CLR,,0.00,WeatherDisplay:10.37,2013-02-10 00:15:00,
2013-02-09 16:20:00,48.5,20.7,29.88,West,273,19.6,19.6,33,0.00,CLR,,0.00,WeatherDisplay:10.37,2013-02-10 00:20:00,
2013-02-09 16:25:00,48.3,20.5,29.88,WNW,283,18.4,18.4,33,0.00,CLR,,0.00,WeatherDisplay:10.37,2013-02-10 00:25:00,
2013-02-09 16:30:00,47.9,20.1,29.89,NW,310,20.0,20.0,33,0.00,CLR,,0.00,WeatherDisplay:10.37,2013-02-10 00:30:00,
2013-02-09 16:35:00,47.5,19.8,29.89,WNW,285,19.0,19.0,33,0.00,CLR,,0.00,WeatherDisplay:10.37,2013-02-10 00:35:00,
2013-02-09 16:40:00,47.5,20.5,29.89,West,281,17.3,17.3,34,0.00,CLR,,0.00,WeatherDisplay:10.37,2013-02-10 00:40:00,
2013-02-09 16:45:00,47.5,20.5,29.89,WNW,287,19.6,19.6,34,0.00,CLR,,0.00,WeatherDisplay:10.37,2013-02-10 00:45:00,
2013-02-09 16:50:00,47.4,19.7,29.89,WNW,296,15.0,15.0,33,0.00,CLR,,0.00,WeatherDisplay:10.37,2013-02-10 00:50:00,
2013-02-09 16:55:00,47.2,19.5,29.89,WNW,295,16.1,16.1,33,0.00,CLR,,0.00,WeatherDisplay:10.37,2013-02-10 00:55:00,
2013-02-09 17:00:00,47.3,19.6,29.90,West,269,12.7,12.7,33,0.00,CLR,,0.00,WeatherDisplay:10.37,2013-02-10 01:00:00,
2013-02-09 17:05:00,47.3,19.6,29.90,West,280,15.0,15.0,33,0.00,CLR,,0.00,WeatherDisplay:10.37,2013-02-10 01:05:00,
2013-02-09 17:10:00,47.3,18.9,29.90,West,277,13.8,13.8,32,0.00,CLR,,0.00,WeatherDisplay:10.37,2013-02-10 01:10:00,
2013-02-09 17:15:00,47.1,18.7,29.90,West,263,15.0,15.0,32,0.00,CLR,,0.00,WeatherDisplay:10.37,2013-02-10 01:15:00,
2013-02-09 17:20:00,46.9,18.5,29.90,West,277,11.0,11.0,32,0.00,CLR,,0.00,WeatherDisplay:10.37,2013-02-10 01:20:00,
2013-02-09 17:25:00,46.4,19.5,29.91,WNW,290,17.0,17.0,34,0.00,CLR,,0.00,WeatherDisplay:10.37,2013-02-10 01:25:00,
2013-02-09 17:30:00,45.9,18.4,29.91,WNW,301,12.0,12.0,33,0.00,CLR,,0.00,WeatherDisplay:10.37,2013-02-10 01:30:00,
2013-02-09 17:35:00,45.4,17.9,29.91,WNW,303,13.8,13.8,33,0.00,CLR,,0.00,WeatherDisplay:10.37,2013-02-10 01:35:00,
2013-02-09 17:40:00,45.0,17.6,29.91,WNW,296,13.8,13.8,33,0.00,CLR,,0.00,WeatherDisplay:10.37,2013-02-10 01:40:00,
2013-02-09 17:45:00,44.6,17.9,29.91,WNW,302,11.5,11.5,34,0.00,CLR,,0.00,WeatherDisplay:10.37,2013-02-10 01:45:00,
2013-02-09 17:50:00,44.5,17.8,29.92,NW,304,15.0,15.0,34,0.00,CLR,,0.00,WeatherDisplay:10.37,2013-02-10 01:50:00,
2013-02-09 17:55:00,44.5,17.8,29.92,WNW,296,12.7,12.7,34,0.00,CLR,,0.00,WeatherDisplay:10.37,2013-02-10 01:55:00,
2013-02-09 18:00:00,44.2,17.6,29.92,WNW,288,14.0,14.0,34,0.00,CLR,,0.00,WeatherDisplay:10.37,2013-02-10 02:00:00,
2013-02-09 18:05:00,43.9,18.0,29.93,WNW,292,15.0,15.0,35,0.00,CLR,,0.00,WeatherDisplay:10.37,2013-02-10 02:05:00,
2013-02-09 18:10:00,43.5,19.5,29.93,WNW,284,21.9,21.9,38,0.00,CLR,,0.00,WeatherDisplay:10.37,2013-02-10 02:10:00,
2013-02-09 18:15:00,43.2,19.9,29.93,WNW,284,19.0,19.0,39,0.00,CLR,,0.00,WeatherDisplay:10.37,2013-02-10 02:15:00,
2013-02-09 18:20:00,42.9,20.8,29.93,West,281,13.8,13.8,41,0.00,CLR,,0.00,WeatherDisplay:10.37,2013-02-10 02:20:00,
2013-02-09 18:25:00,42.5,20.4,29.93,West,272,15.0,15.0,41,0.00,CLR,,0.00,WeatherDisplay:10.37,2013-02-10 02:25:00,
2013-02-09 18:30:00,42.2,20.7,29.94,West,274,13.8,13.8,42,0.00,CLR,,0.00,WeatherDisplay:10.37,2013-02-10 02:30:00,
2013-02-09 18:35:00,42.1,21.2,29.93,West,267,19.6,19.6,43,0.00,CLR,,0.00,WeatherDisplay:10.37,2013-02-10 02:35:00,
2013-02-09 18:40:00,41.8,20.9,29.93,West,264,18.4,18.4,43,0.00,CLR,,0.00,WeatherDisplay:10.37,2013-02-10 02:40:00,
2013-02-09 18:45:00,41.1,20.8,29.93,West,263,19.6,19.6,44,0.00,CLR,,0.00,WeatherDisplay:10.37,2013-02-10 02:45:00,
2013-02-09 18:50:00,40.5,22.3,29.93,WSW,252,17.3,17.3,48,0.00,CLR,,0.00,WeatherDisplay:10.37,2013-02-10 02:50:00,
2013-02-09 18:55:00,40.3,22.1,29.94,West,267,13.0,13.0,48,0.00,CLR,,0.00,WeatherDisplay:10.37,2013-02-10 02:55:00,
2013-02-09 19:00:00,39.8,22.7,29.93,WSW,254,12.7,12.7,50,0.00,CLR,,0.00,WeatherDisplay:10.37,2013-02-10 03:00:00,
2013-02-09 19:05:00,39.3,24.0,29.93,WSW,252,12.7,12.7,54,0.00,CLR,,0.00,WeatherDisplay:10.37,2013-02-10 03:05:00,
2013-02-09 19:10:00,39.4,24.1,29.93,WNW,284,13.8,13.8,54,0.00,CLR,,0.00,WeatherDisplay:10.37,2013-02-10 03:10:00,
2013-02-09 19:15:00,39.5,23.8,29.94,WNW,287,11.5,11.5,53,0.00,CLR,,0.00,WeatherDisplay:10.37,2013-02-10 03:15:00,
2013-02-09 19:20:00,40.2,23.5,29.94,WNW,290,11.5,11.5,51,0.00,CLR,,0.00,WeatherDisplay:10.37,2013-02-10 03:20:00,
2013-02-09 19:25:00,40.5,23.3,29.94,WSW,249,5.8,5.8,50,0.00,CLR,,0.00,WeatherDisplay:10.37,2013-02-10 03:25:00,
2013-02-09 19:30:00,40.1,23.4,29.94,West,259,3.5,3.5,51,0.00,CLR,,0.00,WeatherDisplay:10.37,2013-02-10 03:30:00,
2013-02-09 19:35:00,39.8,23.1,29.95,NW,306,4.6,4.6,51,0.00,CLR,,0.00,WeatherDisplay:10.37,2013-02-10 03:35:00,
2013-02-09 19:40:00,39.9,23.2,29.95,WNW,290,3.5,3.5,51,0.00,CLR,,0.00,WeatherDisplay:10.37,2013-02-10 03:40:00,
2013-02-09 19:45:00,39.7,23.5,29.95,WNW,292,9.0,9.0,52,0.00,CLR,,0.00,WeatherDisplay:10.37,2013-02-10 03:45:00,
2013-02-09 19:50:00,39.9,24.1,29.95,NW,318,10.4,10.4,53,0.00,CLR,,0.00,WeatherDisplay:10.37,2013-02-10 03:50:00,
2013-02-09 19:55:00,39.6,24.7,29.95,NW,309,11.5,11.5,55,0.00,CLR,,0.00,WeatherDisplay:10.37,2013-02-10 03:55:00,
2013-02-09 20:01:00,39.4,24.6,29.95,NW,304,11.5,11.5,55,0.00,CLR,,0.00,WeatherDisplay:10.37,2013-02-10 04:01:00,
2013-02-09 20:06:00,39.3,24.9,29.95,West,281,13.8,13.8,56,0.00,CLR,,0.00,WeatherDisplay:10.37,2013-02-10 04:06:00,
2013-02-09 20:11:00,39.0,25.0,29.95,WNW,288,12.0,12.0,57,0.00,CLR,,0.00,WeatherDisplay:10.37,2013-02-10 04:11:00,
2013-02-09 20:16:00,38.8,24.9,29.95,WNW,303,11.5,11.5,57,0.00,CLR,,0.00,WeatherDisplay:10.37,2013-02-10 04:16:00,
2013-02-09 20:21:00,38.8,24.9,29.96,WNW,283,10.0,10.0,57,0.00,CLR,,0.00,WeatherDisplay:10.37,2013-02-10 04:21:00,
2013-02-09 20:26:00,38.5,25.0,29.96,West,277,9.2,9.2,58,0.00,CLR,,0.00,WeatherDisplay:10.37,2013-02-10 04:26:00,
2013-02-09 20:31:00,38.3,24.8,29.96,WNW,286,10.0,10.0,58,0.00,CLR,,0.00,WeatherDisplay:10.37,2013-02-10 04:31:00,
2013-02-09 20:36:00,38.3,24.8,29.96,NW,304,5.8,5.8,58,0.00,CLR,,0.00,WeatherDisplay:10.37,2013-02-10 04:36:00,
2013-02-09 20:41:00,38.3,24.8,29.96,West,263,10.4,10.4,58,0.00,CLR,,0.00,WeatherDisplay:10.37,2013-02-10 04:41:00,
2013-02-09 20:46:00,38.2,24.7,29.96,West,273,9.2,9.2,58,0.00,CLR,,0.00,WeatherDisplay:10.37,2013-02-10 04:46:00,
2013-02-09 20:51:00,38.2,24.7,29.97,West,273,8.0,8.0,58,0.00,CLR,,0.00,WeatherDisplay:10.37,2013-02-10 04:51:00,
2013-02-09 20:56:00,38.0,24.5,29.97,WNW,284,9.2,9.2,58,0.00,CLR,,0.00,WeatherDisplay:10.37,2013-02-10 04:56:00,
2013-02-09 21:00:00,37.9,24.8,29.96,West,276,6.9,6.9,59,0.00,CLR,,0.00,WeatherDisplay:10.37,2013-02-10 05:00:00,
2013-02-09 21:05:00,37.8,24.7,29.96,West,262,4.6,4.6,59,0.00,CLR,,0.00,WeatherDisplay:10.37,2013-02-10 05:05:00,
2013-02-09 21:10:00,37.5,24.5,29.96,West,269,8.1,8.1,59,0.00,CLR,,0.00,WeatherDisplay:10.37,2013-02-10 05:10:00,
2013-02-09 21:15:00,37.3,24.7,29.96,WNW,284,5.8,5.8,60,0.00,CLR,,0.00,WeatherDisplay:10.37,2013-02-10 05:15:00,
2013-02-09 21:17:00,37.3,24.7,29.97,WNW,285,5.0,5.0,60,0.00,CLR,,0.00,WeatherDisplay:10.37,2013-02-10 05:17:00,
2013-02-09 21:22:00,37.4,24.4,29.97,WNW,290,4.6,4.6,59,0.00,CLR,,0.00,WeatherDisplay:10.37,2013-02-10 05:22:00,
2013-02-09 21:27:00,37.5,24.1,29.96,WNW,298,9.2,9.2,58,0.00,CLR,,0.00,WeatherDisplay:10.37,2013-02-10 05:27:00,
2013-02-09 21:32:00,37.4,24.0,29.97,WNW,286,6.9,6.9,58,0.00,CLR,,0.00,WeatherDisplay:10.37,2013-02-10 05:32:00,
2013-02-09 21:37:00,37.4,24.0,29.97,West,276,9.2,9.2,58,0.00,CLR,,0.00,WeatherDisplay:10.37,2013-02-10 05:37:00,
2013-02-09 21:42:00,37.3,23.9,29.97,West,263,6.0,6.0,58,0.00,CLR,,0.00,WeatherDisplay:10.37,2013-02-10 05:42:00,
2013-02-09 21:46:00,37.0,23.6,29.97,West,263,4.6,4.6,58,0.00,CLR,,0.00,WeatherDisplay:10.37,2013-02-10 05:46:00,
2013-02-09 21:51:00,36.6,23.6,29.98,West,263,3.5,3.5,59,0.00,CLR,,0.00,WeatherDisplay:10.37,2013-02-10 05:51:00,
2013-02-09 21:56:00,36.4,23.4,29.98,West,263,3.5,3.5,59,0.00,CLR,,0.00,WeatherDisplay:10.37,2013-02-10 05:56:00,
2013-02-09 22:01:00,36.2,23.6,29.98,WSW,247,3.5,3.5,60,0.00,CLR,,0.00,WeatherDisplay:10.37,2013-02-10 06:01:00,
2013-02-09 22:06:00,35.9,23.0,29.98,WSW,247,2.3,2.3,59,0.00,CLR,,0.00,WeatherDisplay:10.37,2013-02-10 06:06:00,
2013-02-09 22:11:00,35.2,22.7,29.98,SW,222,4.6,4.6,60,0.00,CLR,,0.00,WeatherDisplay:10.37,2013-02-10 06:11:00,
2013-02-09 22:16:00,34.8,22.7,29.98,SW,221,4.0,4.0,61,0.00,CLR,,0.00,WeatherDisplay:10.37,2013-02-10 06:16:00,
2013-02-09 22:21:00,34.4,22.3,29.98,SW,222,4.6,4.6,61,0.00,CLR,,0.00,WeatherDisplay:10.37,2013-02-10 06:21:00,
2013-02-09 22:26:00,34.1,21.7,29.98,SW,222,2.3,2.3,60,0.00,CLR,,0.00,WeatherDisplay:10.37,2013-02-10 06:26:00,
2013-02-09 22:31:00,33.4,21.4,29.98,SW,227,3.5,3.5,61,0.00,CLR,,0.00,WeatherDisplay:10.37,2013-02-10 06:31:00,
2013-02-09 22:36:00,33.4,21.8,29.98,WSW,254,3.5,3.5,62,0.00,CLR,,0.00,WeatherDisplay:10.37,2013-02-10 06:36:00,
2013-02-09 22:41:00,33.3,21.7,29.98,WSW,254,2.3,2.3,62,0.00,CLR,,0.00,WeatherDisplay:10.37,2013-02-10 06:41:00,
2013-02-09 22:46:00,33.7,22.4,29.99,WSW,254,3.5,3.5,63,0.00,CLR,,0.00,WeatherDisplay:10.37,2013-02-10 06:46:00,
2013-02-09 22:51:00,34.3,22.6,29.99,WSW,253,3.5,3.5,62,0.00,CLR,,0.00,WeatherDisplay:10.37,2013-02-10 06:51:00,
2013-02-09 22:56:00,34.4,22.3,29.99,WSW,253,2.3,2.3,61,0.00,CLR,,0.00,WeatherDisplay:10.37,2013-02-10 06:56:00,
2013-02-09 23:01:00,34.4,21.9,29.98,WSW,254,3.0,3.0,60,0.00,CLR,,0.00,WeatherDisplay:10.37,2013-02-10 07:01:00,
2013-02-09 23:06:00,34.4,21.9,29.98,WSW,253,2.3,2.3,60,0.00,CLR,,0.00,WeatherDisplay:10.37,2013-02-10 07:06:00,
2013-02-09 23:11:00,34.6,22.1,29.98,WSW,253,2.3,2.3,60,0.00,CLR,,0.00,WeatherDisplay:10.37,2013-02-10 07:11:00,
2013-02-09 23:16:00,34.9,21.6,29.98,WSW,254,2.3,2.3,58,0.00,CLR,,0.00,WeatherDisplay:10.37,2013-02-10 07:16:00,
2013-02-09 23:21:00,34.7,21.4,29.98,WSW,253,3.5,3.5,58,0.00,CLR,,0.00,WeatherDisplay:10.37,2013-02-10 07:21:00,
2013-02-09 23:26:00,34.4,21.1,29.99,WSW,253,1.1,1.1,58,0.00,CLR,,0.00,WeatherDisplay:10.37,2013-02-10 07:26:00,
2013-02-09 23:31:00,34.2,21.4,29.99,WSW,254,0.0,0.0,59,0.00,CLR,,0.00,WeatherDisplay:10.37,2013-02-10 07:31:00,
2013-02-09 23:36:00,34.4,21.5,29.99,WSW,253,3.5,3.5,59,0.00,CLR,,0.00,WeatherDisplay:10.37,2013-02-10 07:36:00,
2013-02-09 23:41:00,34.4,21.1,29.99,West,262,4.6,4.6,58,0.00,CLR,,0.00,WeatherDisplay:10.37,2013-02-10 07:41:00,
2013-02-09 23:46:00,34.8,21.1,29.99,West,263,4.6,4.6,57,0.00,CLR,,0.00,WeatherDisplay:10.37,2013-02-10 07:46:00,
2013-02-09 23:51:00,34.7,21.0,29.99,West,263,4.0,4.0,57,0.00,CLR,,0.00,WeatherDisplay:10.37,2013-02-10 07:51:00,
2013-02-09 23:56:00,34.6,20.9,30.00,West,269,4.0,4.0,57,0.00,CLR,,0.00,WeatherDisplay:10.37,2013-02-10 07:56:00,